Time;durP1;ratioP1;P1;durP2;ratioP2;P2;SDS_P1;SDS_P2;PMS_P1;PMS_P2;Temp;Humidity;BMP_temperature;BMP_pressure;BME280_temperature;BME280_humidity;BME280_pressure;Samples;Min_cycle;Max_cycle;Signal;HPM_P1;HPM_P2
2021/12/24 00:01:23;;;;;;;27.65;15.18;;;;;;;;;;6225809;28;20446;-68
2021/12/24 00:04:23;;;;;;;33.75;15.80;;;;;;;;;;6231926;28;20026;-68
2021/12/24 00:07:24;;;;;;;42.10;23.48;;;;;;;;;;6226288;28;20036;-68
2021/12/24 00:10:24;;;;;;;32.47;17.58;;;;;;;;;;6246803;28;20014;-68
2021/12/24 00:13:26;;;;;;;30.25;17.52;;;;;;;;;;6246527;28;20132;-69
2021/12/24 00:16:36;;;;;;;33.35;19.40;;;;;;;;;;6246438;28;20029;-69
2021/12/24 00:19:44;;;;;;;21.42;11.25;;;;;;;;;;6246492;28;20021;-68
2021/12/24 00:35:01;;;;;;;27.95;14.88;;;;;;;;;;6247068;28;20033;-68
2021/12/24 00:36:21;;;;;;;31.80;15.88;;;;;;;;;;6221972;28;20046;-68
2021/12/24 00:39:21;;;;;;;29.95;20.83;;;;;;;;;;6225954;28;20517;-68
2021/12/24 00:42:22;;;;;;;31.42;16.25;;;;;;;;;;6245639;28;20040;-68
2021/12/24 00:45:25;;;;;;;22.95;12.20;;;;;;;;;;6245603;28;20366;-68
2021/12/24 00:48:25;;;;;;;29.80;16.85;;;;;;;;;;6245159;28;20096;-68
2021/12/24 00:51:53;;;;;;;22.30;7.65;;;;;;;;;;6245730;28;20037;-68
2021/12/24 00:55:06;;;;;;;14.40;7.63;;;;;;;;;;6245164;28;20518;-68
2021/12/24 00:58:06;;;;;;;29.95;17.08;;;;;;;;;;6244976;28;20428;-68
2021/12/24 01:01:08;;;;;;;19.85;10.75;;;;;;;;;;6244736;28;20097;-68
2021/12/24 01:04:08;;;;;;;24.00;13.85;;;;;;;;;;6239279;28;20114;-68
2021/12/24 01:07:09;;;;;;;18.15;8.88;;;;;;;;;;6240967;28;20025;-68
2021/12/24 01:10:10;;;;;;;23.25;11.63;;;;;;;;;;6229545;28;20086;-68
2021/12/24 01:13:10;;;;;;;23.35;14.55;;;;;;;;;;6244800;28;20076;-68
2021/12/24 01:16:37;;;;;;;19.88;12.30;;;;;;;;;;6245111;28;20025;-69
2021/12/24 01:19:38;;;;;;;16.88;9.57;;;;;;;;;;6243611;28;20452;-68
2021/12/24 01:26:09;;;;;;;25.13;15.13;;;;;;;;;;6221313;28;20029;-69
2021/12/24 01:45:15;;;;;;;20.80;11.48;;;;;;;;;;6244216;28;20104;-69
2021/12/24 01:48:16;;;;;;;19.58;9.80;;;;;;;;;;6243924;28;20053;-69
2021/12/24 01:51:16;;;;;;;16.27;8.52;;;;;;;;;;6244318;28;20032;-69
2021/12/24 01:54:17;;;;;;;23.67;12.40;;;;;;;;;;6244516;28;20025;-69
2021/12/24 01:57:17;;;;;;;20.55;8.43;;;;;;;;;;6243680;28;20034;-69
2021/12/24 02:00:19;;;;;;;23.90;14.80;;;;;;;;;;6243775;28;20064;-69
2021/12/24 02:03:20;;;;;;;25.42;13.82;;;;;;;;;;6244152;28;20021;-69
2021/12/24 02:06:20;;;;;;;26.27;15.32;;;;;;;;;;6244063;28;20024;-69
2021/12/24 02:09:21;;;;;;;16.95;9.32;;;;;;;;;;6243613;28;20079;-70
2021/12/24 02:12:24;;;;;;;21.35;11.32;;;;;;;;;;6243400;28;20095;-69
2021/12/24 02:28:38;;;;;;;32.75;16.92;;;;;;;;;;6243474;28;20092;-70
2021/12/24 02:31:38;;;;;;;26.48;15.77;;;;;;;;;;6233133;28;20022;-70
2021/12/24 02:34:38;;;;;;;26.98;15.32;;;;;;;;;;6219136;28;20029;-70
2021/12/24 02:37:39;;;;;;;22.35;9.35;;;;;;;;;;6220849;28;20076;-70
2021/12/24 02:40:39;;;;;;;28.13;15.45;;;;;;;;;;6243079;28;20025;-70
2021/12/24 02:43:40;;;;;;;27.23;15.27;;;;;;;;;;6243433;28;20021;-70
2021/12/24 02:47:40;;;;;;;27.17;14.43;;;;;;;;;;6243151;28;20022;-70
2021/12/24 02:56:24;;;;;;;28.23;16.90;;;;;;;;;;6242995;28;20026;-70
2021/12/24 02:59:28;;;;;;;30.42;16.08;;;;;;;;;;6230616;28;20029;-70
2021/12/24 03:02:32;;;;;;;22.88;13.23;;;;;;;;;;6218319;28;20381;-70
2021/12/24 03:05:32;;;;;;;22.30;13.82;;;;;;;;;;6218706;28;20033;-70
2021/12/24 03:08:33;;;;;;;23.70;13.80;;;;;;;;;;6218524;28;20304;-70
2021/12/24 03:11:34;;;;;;;24.90;16.47;;;;;;;;;;6232799;28;20049;-70
2021/12/24 03:14:35;;;;;;;22.30;10.30;;;;;;;;;;6243148;28;20543;-70
2021/12/24 03:17:35;;;;;;;29.73;16.83;;;;;;;;;;6242423;28;20053;-70
2021/12/24 03:20:35;;;;;;;24.17;16.15;;;;;;;;;;6242712;28;20074;-70
2021/12/24 03:26:56;;;;;;;19.15;13.95;;;;;;;;;;6230971;28;20030;-71
2021/12/24 03:29:58;;;;;;;22.30;12.20;;;;;;;;;;6242572;28;20029;-71
2021/12/24 03:32:58;;;;;;;20.63;13.48;;;;;;;;;;6242754;28;20028;-71
2021/12/24 03:35:58;;;;;;;29.50;16.23;;;;;;;;;;6242809;28;20045;-71
2021/12/24 03:38:58;;;;;;;15.88;8.30;;;;;;;;;;6241783;28;20021;-71
2021/12/24 03:41:59;;;;;;;21.70;11.43;;;;;;;;;;6242691;28;20020;-71
2021/12/24 03:45:09;;;;;;;30.55;17.75;;;;;;;;;;6234119;28;20021;-71
2021/12/24 03:51:46;;;;;;;27.80;14.27;;;;;;;;;;6212553;28;20037;-71
2021/12/24 03:54:58;;;;;;;27.70;11.38;;;;;;;;;;6246580;28;20041;-71
2021/12/24 03:57:59;;;;;;;29.15;17.20;;;;;;;;;;6246682;28;20022;-71
2021/12/24 04:00:59;;;;;;;21.98;13.77;;;;;;;;;;6246952;28;20485;-71
2021/12/24 04:03:59;;;;;;;14.93;9.27;;;;;;;;;;6246927;28;20028;-71
2021/12/24 04:07:00;;;;;;;19.38;11.75;;;;;;;;;;6246515;28;20448;-71
2021/12/24 04:10:04;;;;;;;22.50;12.48;;;;;;;;;;6246514;28;20022;-72
2021/12/24 04:13:04;;;;;;;27.10;16.48;;;;;;;;;;6246421;28;20267;-72
2021/12/24 04:16:05;;;;;;;16.95;10.55;;;;;;;;;;6247031;28;20041;-72
2021/12/24 04:25:43;;;;;;;23.92;12.38;;;;;;;;;;6246099;28;20021;-73
2021/12/24 04:28:43;;;;;;;22.85;11.02;;;;;;;;;;6245893;28;20442;-73
2021/12/24 04:31:48;;;;;;;27.73;15.02;;;;;;;;;;6245929;28;20017;-73
2021/12/24 04:34:50;;;;;;;20.52;10.38;;;;;;;;;;6246133;28;20021;-74
2021/12/24 05:03:46;;;;;;;27.90;15.68;;;;;;;;;;6245358;28;20033;-74
2021/12/24 05:06:56;;;;;;;41.45;17.73;;;;;;;;;;6245084;28;20018;-75
2021/12/24 05:09:56;;;;;;;32.65;17.13;;;;;;;;;;6245039;28;20489;-74
2021/12/24 05:12:57;;;;;;;39.63;18.27;;;;;;;;;;6244517;28;20056;-74
2021/12/24 05:16:05;;;;;;;38.30;23.23;;;;;;;;;;6234986;28;20021;-74
2021/12/24 05:22:24;;;;;;;35.03;17.45;;;;;;;;;;6243098;28;20026;-74
2021/12/24 05:25:25;;;;;;;37.47;21.15;;;;;;;;;;6244964;28;20047;-74
2021/12/24 05:28:25;;;;;;;33.83;15.48;;;;;;;;;;6234748;28;20111;-74
2021/12/24 05:31:25;;;;;;;36.90;16.67;;;;;;;;;;6233912;28;20509;-73
2021/12/24 05:34:25;;;;;;;33.10;19.10;;;;;;;;;;6243530;28;20041;-73
2021/12/24 05:37:26;;;;;;;61.80;28.38;;;;;;;;;;6242702;28;20452;-73
2021/12/24 05:40:26;;;;;;;57.20;29.27;;;;;;;;;;6235205;28;20021;-73
2021/12/24 05:43:26;;;;;;;72.88;33.05;;;;;;;;;;6230177;28;20436;-72
2021/12/24 05:46:27;;;;;;;50.38;26.65;;;;;;;;;;6241400;28;20092;-74
2021/12/24 05:49:28;;;;;;;57.05;26.75;;;;;;;;;;6240047;28;20017;-72
2021/12/24 05:52:28;;;;;;;62.97;32.08;;;;;;;;;;6241683;28;20108;-72
2021/12/24 05:55:29;;;;;;;61.03;33.03;;;;;;;;;;6242120;28;20552;-72
2021/12/24 05:58:29;;;;;;;49.83;24.42;;;;;;;;;;6240656;28;20289;-72
2021/12/24 06:01:29;;;;;;;38.28;19.80;;;;;;;;;;6241254;28;20021;-72
2021/12/24 06:04:29;;;;;;;55.00;28.13;;;;;;;;;;6240753;28;20009;-72
2021/12/24 06:07:30;;;;;;;43.75;18.90;;;;;;;;;;6239018;28;20061;-72
2021/12/24 06:10:30;;;;;;;32.05;18.30;;;;;;;;;;6232361;28;20021;-72
2021/12/24 06:13:31;;;;;;;51.60;25.67;;;;;;;;;;6241657;28;20072;-73
2021/12/24 06:16:31;;;;;;;36.20;17.88;;;;;;;;;;6242199;28;20021;-73
2021/12/24 06:19:32;;;;;;;28.63;15.73;;;;;;;;;;6241831;28;20395;-72
2021/12/24 06:22:32;;;;;;;38.33;19.65;;;;;;;;;;6241478;28;20398;-72
2021/12/24 06:25:32;;;;;;;49.38;26.80;;;;;;;;;;6244114;28;20484;-72
2021/12/24 06:28:33;;;;;;;50.95;25.70;;;;;;;;;;6243092;28;20021;-72
2021/12/24 06:31:34;;;;;;;46.50;21.60;;;;;;;;;;6243878;28;20032;-72
2021/12/24 06:34:34;;;;;;;36.67;20.25;;;;;;;;;;6243178;28;20400;-72
2021/12/24 06:37:35;;;;;;;46.67;23.23;;;;;;;;;;6232689;28;20109;-72
2021/12/24 06:40:36;;;;;;;35.92;17.67;;;;;;;;;;6240732;28;20453;-72
2021/12/24 06:43:36;;;;;;;44.95;26.48;;;;;;;;;;6242667;28;20022;-72
2021/12/24 06:46:37;;;;;;;39.08;19.40;;;;;;;;;;6240650;28;20032;-72
2021/12/24 06:49:37;;;;;;;41.72;18.90;;;;;;;;;;6232865;28;20096;-72
2021/12/24 06:52:37;;;;;;;34.85;19.73;;;;;;;;;;6242350;28;20454;-72
2021/12/24 06:55:38;;;;;;;42.92;23.25;;;;;;;;;;6242024;28;20079;-72
2021/12/24 06:58:38;;;;;;;42.40;19.65;;;;;;;;;;6242589;28;20026;-72
2021/12/24 07:01:38;;;;;;;45.50;20.35;;;;;;;;;;6243128;28;20055;-74
2021/12/24 07:04:39;;;;;;;70.28;31.80;;;;;;;;;;6242052;28;20018;-74
2021/12/24 07:07:39;;;;;;;42.47;20.02;;;;;;;;;;6234286;28;20409;-74
2021/12/24 07:10:39;;;;;;;43.75;21.83;;;;;;;;;;6240812;28;20052;-74
2021/12/24 07:13:40;;;;;;;36.97;20.15;;;;;;;;;;6233793;28;20458;-74
2021/12/24 07:16:40;;;;;;;36.30;15.40;;;;;;;;;;6235588;28;20018;-74
2021/12/24 07:19:40;;;;;;;40.25;20.17;;;;;;;;;;6236430;28;20163;-73
2021/12/24 07:22:41;;;;;;;43.45;22.02;;;;;;;;;;6243768;28;20024;-73
2021/12/24 07:25:41;;;;;;;31.77;18.02;;;;;;;;;;6242417;28;20056;-73
2021/12/24 07:28:41;;;;;;;44.00;20.42;;;;;;;;;;6231598;28;20105;-74
2021/12/24 07:31:42;;;;;;;43.28;21.88;;;;;;;;;;6234733;28;20050;-74
2021/12/24 07:34:42;;;;;;;41.60;21.58;;;;;;;;;;6223059;28;20497;-75
2021/12/24 07:37:42;;;;;;;33.80;16.67;;;;;;;;;;6237621;28;20053;-75
2021/12/24 07:40:43;;;;;;;31.33;15.95;;;;;;;;;;6220241;28;20638;-75
2021/12/24 07:43:44;;;;;;;30.80;14.13;;;;;;;;;;6222149;28;20025;-75
2021/12/24 07:46:54;;;;;;;43.67;20.85;;;;;;;;;;6218773;28;20344;-75
2021/12/24 07:50:01;;;;;;;32.35;18.95;;;;;;;;;;6220574;28;20164;-75
2021/12/24 07:53:03;;;;;;;35.00;17.65;;;;;;;;;;6223021;28;20521;-75
2021/12/24 07:56:04;;;;;;;36.45;17.65;;;;;;;;;;6219354;28;20018;-75
2021/12/24 07:59:04;;;;;;;53.97;25.23;;;;;;;;;;6220458;28;20029;-75
2021/12/24 08:02:10;;;;;;;38.78;21.75;;;;;;;;;;6222319;28;20028;-75
2021/12/24 08:05:13;;;;;;;50.28;23.60;;;;;;;;;;6218132;28;20018;-75
2021/12/24 08:08:13;;;;;;;41.78;21.60;;;;;;;;;;6218506;28;20678;-75
2021/12/24 08:11:14;;;;;;;47.03;22.02;;;;;;;;;;6220126;28;20030;-75
2021/12/24 08:14:14;;;;;;;21.92;12.27;;;;;;;;;;6233563;28;20036;-74
2021/12/24 08:17:16;;;;;;;36.30;18.30;;;;;;;;;;6233272;28;20180;-74
2021/12/24 08:20:21;;;;;;;23.33;13.63;;;;;;;;;;6218944;28;20047;-75
2021/12/24 08:23:22;;;;;;;37.83;20.65;;;;;;;;;;6223689;28;20068;-74
2021/12/24 08:26:22;;;;;;;31.70;18.58;;;;;;;;;;6210458;28;20358;-74
2021/12/24 08:29:23;;;;;;;33.05;16.63;;;;;;;;;;6234500;28;20628;-74
2021/12/24 08:32:23;;;;;;;38.25;17.52;;;;;;;;;;6229316;28;20511;-74
2021/12/24 08:35:24;;;;;;;39.58;21.95;;;;;;;;;;6242765;28;20022;-73
2021/12/24 08:38:24;;;;;;;35.80;17.75;;;;;;;;;;6240651;28;20064;-72
2021/12/24 08:41:25;;;;;;;34.30;15.38;;;;;;;;;;6230201;28;20022;-72
2021/12/24 08:44:26;;;;;;;42.30;22.88;;;;;;;;;;6230712;28;20022;-73
2021/12/24 08:47:27;;;;;;;36.25;18.15;;;;;;;;;;6227629;28;20030;-73
2021/12/24 08:50:27;;;;;;;59.40;27.90;;;;;;;;;;6228443;28;20071;-73
2021/12/24 08:53:27;;;;;;;50.55;23.08;;;;;;;;;;6228081;28;20022;-73
2021/12/24 08:56:28;;;;;;;47.80;25.17;;;;;;;;;;6224326;28;20049;-73
2021/12/24 08:59:28;;;;;;;50.78;22.77;;;;;;;;;;6224258;28;20033;-73
2021/12/24 09:02:29;;;;;;;49.55;23.73;;;;;;;;;;6218462;28;20536;-73
2021/12/24 09:05:29;;;;;;;40.22;18.63;;;;;;;;;;6216099;28;20104;-73
2021/12/24 09:08:30;;;;;;;48.67;21.67;;;;;;;;;;6219663;28;20048;-72
2021/12/24 09:11:30;;;;;;;47.97;22.10;;;;;;;;;;6218569;28;20053;-72
2021/12/24 09:14:30;;;;;;;54.45;23.60;;;;;;;;;;6217818;28;20435;-72
2021/12/24 09:17:31;;;;;;;40.38;23.05;;;;;;;;;;6219759;28;20033;-72
2021/12/24 09:20:36;;;;;;;37.47;20.40;;;;;;;;;;6216471;28;20390;-72
2021/12/24 09:23:37;;;;;;;45.28;22.92;;;;;;;;;;6232453;28;20492;-72
2021/12/24 09:26:38;;;;;;;44.47;22.80;;;;;;;;;;6239876;28;20029;-72
2021/12/24 09:29:38;;;;;;;61.42;28.45;;;;;;;;;;6221476;28;20494;-72
2021/12/24 09:32:38;;;;;;;52.08;25.48;;;;;;;;;;6238839;28;20370;-72
2021/12/24 09:35:39;;;;;;;37.35;20.10;;;;;;;;;;6233284;28;20033;-72
2021/12/24 09:38:39;;;;;;;39.88;20.13;;;;;;;;;;6224130;28;20021;-72
2021/12/24 09:41:39;;;;;;;51.05;25.75;;;;;;;;;;6242842;28;20026;-72
2021/12/24 09:44:40;;;;;;;58.72;25.42;;;;;;;;;;6243831;28;20013;-72
2021/12/24 09:47:40;;;;;;;47.60;23.65;;;;;;;;;;6241535;28;20371;-72
2021/12/24 09:50:40;;;;;;;51.22;28.30;;;;;;;;;;6242032;28;20477;-72
2021/12/24 09:53:41;;;;;;;31.10;16.52;;;;;;;;;;6229047;28;20108;-72
2021/12/24 09:56:42;;;;;;;54.67;29.90;;;;;;;;;;6223916;28;20416;-73
2021/12/24 09:59:42;;;;;;;40.08;22.33;;;;;;;;;;6217923;28;20026;-73
2021/12/24 10:02:45;;;;;;;48.60;23.50;;;;;;;;;;6217608;28;20025;-72
2021/12/24 10:05:46;;;;;;;52.13;29.05;;;;;;;;;;6220572;28;20018;-73
2021/12/24 10:08:58;;;;;;;39.97;19.15;;;;;;;;;;6221905;28;20390;-73
2021/12/24 10:11:59;;;;;;;51.67;23.83;;;;;;;;;;6237604;28;20049;-73
2021/12/24 10:15:01;;;;;;;51.30;24.20;;;;;;;;;;6243795;28;20087;-73
2021/12/24 10:18:21;;;;;;;32.97;18.42;;;;;;;;;;6222298;28;20034;-73
2021/12/24 10:21:23;;;;;;;39.78;21.23;;;;;;;;;;6217250;28;20057;-73
2021/12/24 10:24:26;;;;;;;35.97;18.55;;;;;;;;;;6230789;28;20022;-72
2021/12/24 10:27:31;;;;;;;48.38;26.00;;;;;;;;;;6239323;28;20124;-73
2021/12/24 10:30:32;;;;;;;50.65;27.17;;;;;;;;;;6242018;28;20024;-73
2021/12/24 10:33:32;;;;;;;42.85;25.40;;;;;;;;;;6241946;28;20029;-73
2021/12/24 10:36:32;;;;;;;36.63;20.42;;;;;;;;;;6240799;28;20063;-73
2021/12/24 10:40:02;;;;;;;37.05;19.08;;;;;;;;;;6231761;28;20026;-73
2021/12/24 10:43:02;;;;;;;30.58;16.55;;;;;;;;;;6219095;28;20037;-73
2021/12/24 10:46:16;;;;;;;36.20;18.77;;;;;;;;;;6227108;28;20028;-72
2021/12/24 10:49:34;;;;;;;41.35;18.27;;;;;;;;;;6235537;28;20084;-72
2021/12/24 10:55:50;;;;;;;21.48;13.93;;;;;;;;;;6222247;28;20593;-72
2021/12/24 10:58:51;;;;;;;47.00;26.17;;;;;;;;;;6240237;28;20520;-72
2021/12/24 11:02:06;;;;;;;42.30;22.70;;;;;;;;;;6241877;28;20067;-72
2021/12/24 11:05:21;;;;;;;64.50;27.38;;;;;;;;;;6240783;28;20021;-72
2021/12/24 11:08:23;;;;;;;39.00;17.23;;;;;;;;;;6233246;28;20060;-72
2021/12/24 11:11:23;;;;;;;49.28;25.23;;;;;;;;;;6233233;28;20025;-72
2021/12/24 11:14:23;;;;;;;48.72;25.02;;;;;;;;;;6232648;28;20149;-73
2021/12/24 11:17:50;;;;;;;49.65;25.33;;;;;;;;;;6224307;28;20030;-73
2021/12/24 11:21:03;;;;;;;53.15;26.85;;;;;;;;;;6229578;28;20678;-73
2021/12/24 11:24:03;;;;;;;48.88;26.98;;;;;;;;;;6237409;28;20155;-72
2021/12/24 11:27:04;;;;;;;36.17;21.60;;;;;;;;;;6239987;28;20519;-73
2021/12/24 11:30:04;;;;;;;46.83;23.73;;;;;;;;;;6222298;28;20757;-72
2021/12/24 11:33:05;;;;;;;32.97;18.92;;;;;;;;;;6230622;28;20093;-72
2021/12/24 11:36:06;;;;;;;32.92;16.85;;;;;;;;;;6238252;28;20010;-72
2021/12/24 11:39:07;;;;;;;39.67;21.40;;;;;;;;;;6238130;28;20020;-72
2021/12/24 11:42:10;;;;;;;46.25;20.42;;;;;;;;;;6238329;28;20093;-72
2021/12/24 11:45:10;;;;;;;30.85;15.82;;;;;;;;;;6240758;28;20056;-72
2021/12/24 11:48:11;;;;;;;44.75;22.60;;;;;;;;;;6240472;28;20419;-72
2021/12/24 11:51:17;;;;;;;39.17;23.63;;;;;;;;;;6229717;28;20057;-72
2021/12/24 11:54:18;;;;;;;32.65;16.23;;;;;;;;;;6237217;28;20025;-72
2021/12/24 11:57:22;;;;;;;31.50;16.77;;;;;;;;;;6238599;28;20013;-72
2021/12/24 12:00:24;;;;;;;43.08;19.05;;;;;;;;;;6240983;28;20056;-72
2021/12/24 12:03:35;;;;;;;40.58;19.35;;;;;;;;;;6240592;28;20022;-72
2021/12/24 12:06:36;;;;;;;33.35;20.02;;;;;;;;;;6245217;28;20026;-72
2021/12/24 12:09:43;;;;;;;49.63;23.50;;;;;;;;;;6223333;28;20029;-72
2021/12/24 12:12:44;;;;;;;54.42;23.33;;;;;;;;;;6220861;28;20054;-72
2021/12/24 12:15:56;;;;;;;33.33;18.15;;;;;;;;;;6221136;28;20169;-72
2021/12/24 12:19:22;;;;;;;28.40;17.63;;;;;;;;;;6224445;28;20022;-72
2021/12/24 12:22:45;;;;;;;19.88;11.85;;;;;;;;;;6242585;28;20056;-72
2021/12/24 12:25:45;;;;;;;34.47;22.25;;;;;;;;;;6244564;28;20667;-72
2021/12/24 12:29:03;;;;;;;41.78;16.02;;;;;;;;;;6246288;28;20041;-73
2021/12/24 12:32:13;;;;;;;42.60;18.08;;;;;;;;;;6246447;28;20026;-72
2021/12/24 12:35:14;;;;;;;35.47;16.98;;;;;;;;;;6241840;28;20025;-73
2021/12/24 12:38:24;;;;;;;47.38;22.98;;;;;;;;;;6245774;28;20025;-73
2021/12/24 12:41:34;;;;;;;27.08;13.23;;;;;;;;;;6244526;28;20083;-73
2021/12/24 12:44:35;;;;;;;30.35;13.32;;;;;;;;;;6245802;28;20022;-73
2021/12/24 12:47:49;;;;;;;28.93;15.70;;;;;;;;;;6245664;28;20034;-73
2021/12/24 12:50:54;;;;;;;30.95;18.85;;;;;;;;;;6245173;28;20489;-73
2021/12/24 12:54:00;;;;;;;29.92;15.50;;;;;;;;;;6245081;28;20060;-73
2021/12/24 12:57:23;;;;;;;30.42;17.27;;;;;;;;;;6245471;28;20029;-73
2021/12/24 13:00:27;;;;;;;40.97;19.10;;;;;;;;;;6244131;28;20028;-73
2021/12/24 13:03:27;;;;;;;33.50;20.63;;;;;;;;;;6260185;28;20040;-73
2021/12/24 13:06:39;;;;;;;35.95;18.60;;;;;;;;;;6241815;28;20478;-73
2021/12/24 13:09:39;;;;;;;42.77;21.50;;;;;;;;;;6245360;28;20025;-73
2021/12/24 13:12:40;;;;;;;43.63;19.40;;;;;;;;;;6244871;28;20053;-73
2021/12/24 13:15:45;;;;;;;52.53;25.67;;;;;;;;;;6240146;28;20549;-73
2021/12/24 13:18:53;;;;;;;29.38;17.25;;;;;;;;;;6230902;28;20394;-74
2021/12/24 13:25:14;;;;;;;45.03;21.55;;;;;;;;;;6244896;28;20456;-73
2021/12/24 13:28:15;;;;;;;42.72;23.80;;;;;;;;;;6243584;28;20429;-73
2021/12/24 13:31:15;;;;;;;29.45;15.18;;;;;;;;;;6244982;28;20041;-72
2021/12/24 13:34:16;;;;;;;54.05;19.05;;;;;;;;;;6244335;28;20025;-72
2021/12/24 13:37:17;;;;;;;39.83;19.67;;;;;;;;;;6244653;28;20033;-72
2021/12/24 13:40:20;;;;;;;36.58;17.40;;;;;;;;;;6243369;28;20017;-72
2021/12/24 13:43:21;;;;;;;35.15;18.13;;;;;;;;;;6241895;28;20018;-72
2021/12/24 13:46:22;;;;;;;31.58;16.90;;;;;;;;;;6238279;28;20164;-72
2021/12/24 13:49:39;;;;;;;45.28;19.70;;;;;;;;;;6228259;28;20028;-72
2021/12/24 13:56:04;;;;;;;43.95;19.05;;;;;;;;;;6227751;28;20065;-72
2021/12/24 13:59:05;;;;;;;35.33;16.27;;;;;;;;;;6238242;28;20057;-71
2021/12/24 14:02:09;;;;;;;32.07;16.63;;;;;;;;;;6235882;28;20032;-71
2021/12/24 14:05:11;;;;;;;31.13;13.88;;;;;;;;;;6234790;28;20288;-71
2021/12/24 14:08:22;;;;;;;28.80;17.77;;;;;;;;;;6228168;28;20083;-71
2021/12/24 14:11:30;;;;;;;46.97;21.50;;;;;;;;;;6234767;28;20021;-71
2021/12/24 14:14:44;;;;;;;36.65;18.75;;;;;;;;;;6239004;28;20413;-71
2021/12/24 14:18:19;;;;;;;42.63;23.92;;;;;;;;;;6222698;28;20034;-71
2021/12/24 14:24:28;;;;;;;31.58;17.67;;;;;;;;;;6243142;28;20114;-71
2021/12/24 14:27:30;;;;;;;34.60;17.85;;;;;;;;;;6222859;28;20033;-71
2021/12/24 14:30:31;;;;;;;31.65;16.90;;;;;;;;;;6238387;28;20104;-71
2021/12/24 14:33:37;;;;;;;38.40;20.52;;;;;;;;;;6246476;28;20433;-71
2021/12/24 14:36:37;;;;;;;45.22;22.25;;;;;;;;;;6246696;28;20727;-71
2021/12/24 14:39:44;;;;;;;33.90;18.08;;;;;;;;;;6243919;28;20025;-71
2021/12/24 14:42:47;;;;;;;39.67;20.98;;;;;;;;;;6252875;28;20509;-71
2021/12/24 14:45:49;;;;;;;39.47;22.17;;;;;;;;;;6237102;28;20466;-72
2021/12/24 14:48:49;;;;;;;32.13;20.80;;;;;;;;;;6260428;28;20055;-72
2021/12/24 14:51:49;;;;;;;27.98;16.35;;;;;;;;;;6251065;28;20428;-72
2021/12/24 14:55:05;;;;;;;32.40;17.60;;;;;;;;;;6260220;28;20075;-72
2021/12/24 14:58:05;;;;;;;31.33;17.35;;;;;;;;;;6233063;28;20524;-71
2021/12/24 15:01:11;;;;;;;29.00;16.38;;;;;;;;;;6237808;28;20025;-71
2021/12/24 15:04:13;;;;;;;36.95;18.30;;;;;;;;;;6253112;28;20029;-71
2021/12/24 15:07:13;;;;;;;27.87;12.07;;;;;;;;;;6253878;28;20449;-71
2021/12/24 15:10:14;;;;;;;25.40;14.43;;;;;;;;;;6227729;28;20025;-72
2021/12/24 15:13:19;;;;;;;37.28;17.88;;;;;;;;;;6232477;28;20049;-72
2021/12/24 15:16:21;;;;;;;34.70;18.55;;;;;;;;;;6245401;28;20032;-72
2021/12/24 15:19:21;;;;;;;21.57;13.90;;;;;;;;;;6254713;28;20517;-72
2021/12/24 15:22:21;;;;;;;40.13;19.20;;;;;;;;;;6260924;28;20017;-72
2021/12/24 15:25:22;;;;;;;28.92;18.00;;;;;;;;;;6254357;28;20021;-73
2021/12/24 15:28:23;;;;;;;45.50;21.52;;;;;;;;;;6236521;28;20484;-73
2021/12/24 15:31:24;;;;;;;34.38;17.50;;;;;;;;;;6255017;28;20013;-73
2021/12/24 15:34:24;;;;;;;26.00;13.03;;;;;;;;;;6259268;28;20032;-73
2021/12/24 15:37:25;;;;;;;27.60;15.80;;;;;;;;;;6254755;28;20374;-73
2021/12/24 15:40:25;;;;;;;29.45;15.50;;;;;;;;;;6255120;28;20005;-73
2021/12/24 15:43:26;;;;;;;36.53;19.20;;;;;;;;;;6261264;28;20465;-73
2021/12/24 15:46:27;;;;;;;30.88;14.80;;;;;;;;;;6255688;28;20593;-73
2021/12/24 15:49:27;;;;;;;28.50;14.75;;;;;;;;;;6267231;28;20025;-73
2021/12/24 15:52:27;;;;;;;39.60;15.68;;;;;;;;;;6267318;28;20028;-72
2021/12/24 15:55:28;;;;;;;40.10;15.85;;;;;;;;;;6272645;28;20021;-72
2021/12/24 15:58:28;;;;;;;38.95;17.45;;;;;;;;;;6247314;28;20021;-72
2021/12/24 16:01:28;;;;;;;27.67;16.27;;;;;;;;;;6247139;28;20089;-72
2021/12/24 16:04:29;;;;;;;22.40;11.25;;;;;;;;;;6247290;28;20013;-73
2021/12/24 16:07:29;;;;;;;20.90;11.40;;;;;;;;;;6247120;28;20087;-72
2021/12/24 16:10:30;;;;;;;38.90;16.95;;;;;;;;;;6226600;28;20018;-72
2021/12/24 16:13:32;;;;;;;35.40;24.77;;;;;;;;;;6220349;28;20045;-72
2021/12/24 16:16:32;;;;;;;30.00;12.55;;;;;;;;;;6222624;28;20390;-72
2021/12/24 16:19:32;;;;;;;24.17;12.07;;;;;;;;;;6220875;28;20117;-73
2021/12/24 16:22:33;;;;;;;28.98;15.93;;;;;;;;;;6228271;28;20493;-73
2021/12/24 16:25:33;;;;;;;31.15;16.13;;;;;;;;;;6245302;28;20371;-73
2021/12/24 16:28:33;;;;;;;28.20;15.82;;;;;;;;;;6230099;28;20032;-73
2021/12/24 16:31:34;;;;;;;29.67;14.40;;;;;;;;;;6220995;28;20045;-73
2021/12/24 16:34:35;;;;;;;23.42;13.40;;;;;;;;;;6224589;28;20025;-73
2021/12/24 16:37:36;;;;;;;25.73;13.27;;;;;;;;;;6219481;28;20041;-73
2021/12/24 16:40:36;;;;;;;19.08;9.50;;;;;;;;;;6220615;28;20020;-73
2021/12/24 16:43:37;;;;;;;20.00;9.57;;;;;;;;;;6245157;28;20014;-73
2021/12/24 16:46:37;;;;;;;20.10;9.30;;;;;;;;;;6245488;28;20029;-73
2021/12/24 16:49:38;;;;;;;26.45;10.57;;;;;;;;;;6256355;28;20540;-73
2021/12/24 16:52:39;;;;;;;21.92;11.90;;;;;;;;;;6263726;28;20048;-73
2021/12/24 16:55:39;;;;;;;24.27;10.75;;;;;;;;;;6246527;28;20064;-73
2021/12/24 16:58:39;;;;;;;29.63;11.35;;;;;;;;;;6245548;28;20388;-73
2021/12/24 17:01:39;;;;;;;26.48;11.02;;;;;;;;;;6245037;28;20018;-74
2021/12/24 17:04:40;;;;;;;21.42;11.05;;;;;;;;;;6242981;28;20424;-74
2021/12/24 17:07:40;;;;;;;20.40;10.15;;;;;;;;;;6245590;28;20121;-74
2021/12/24 17:10:41;;;;;;;24.63;13.88;;;;;;;;;;6244418;28;20028;-74
2021/12/24 17:13:41;;;;;;;19.08;11.68;;;;;;;;;;6243019;28;20041;-74
2021/12/24 17:16:41;;;;;;;21.75;11.48;;;;;;;;;;6244731;28;20113;-73
2021/12/24 17:19:42;;;;;;;27.50;12.73;;;;;;;;;;6245284;28;20196;-73
2021/12/24 17:22:42;;;;;;;21.90;10.70;;;;;;;;;;6246201;28;20389;-73
2021/12/24 17:25:43;;;;;;;22.98;13.43;;;;;;;;;;6245250;28;20080;-73
2021/12/24 17:28:43;;;;;;;22.20;10.57;;;;;;;;;;6228683;28;20457;-73
2021/12/24 17:31:43;;;;;;;19.08;10.32;;;;;;;;;;6220448;28;20561;-73
2021/12/24 17:34:44;;;;;;;27.10;12.75;;;;;;;;;;6254878;28;20053;-73
2021/12/24 17:37:44;;;;;;;22.58;11.82;;;;;;;;;;6244952;28;20032;-74
2021/12/24 17:40:44;;;;;;;23.67;9.73;;;;;;;;;;6244642;28;20013;-73
2021/12/24 17:43:46;;;;;;;24.10;13.07;;;;;;;;;;6244736;28;20021;-73
2021/12/24 17:46:47;;;;;;;30.45;12.55;;;;;;;;;;6244874;28;20124;-73
2021/12/24 17:49:47;;;;;;;26.48;12.68;;;;;;;;;;6234495;28;20029;-74
2021/12/24 17:52:47;;;;;;;22.42;10.73;;;;;;;;;;6228532;28;20087;-74
2021/12/24 17:55:48;;;;;;;15.52;7.00;;;;;;;;;;6243609;28;20451;-74
2021/12/24 17:58:48;;;;;;;25.33;12.50;;;;;;;;;;6244347;28;20053;-74
2021/12/24 18:01:49;;;;;;;17.48;8.23;;;;;;;;;;6242117;28;20052;-74
2021/12/24 18:04:49;;;;;;;18.88;8.40;;;;;;;;;;6244312;28;20014;-74
2021/12/24 18:07:51;;;;;;;21.77;8.60;;;;;;;;;;6242401;28;20053;-74
2021/12/24 18:10:51;;;;;;;18.77;9.65;;;;;;;;;;6244228;28;20024;-73
2021/12/24 18:13:51;;;;;;;22.10;9.82;;;;;;;;;;6242624;28;20049;-73
2021/12/24 18:16:52;;;;;;;26.38;11.73;;;;;;;;;;6241790;28;20028;-73
2021/12/24 18:19:52;;;;;;;21.35;10.73;;;;;;;;;;6228931;28;20468;-73
2021/12/24 18:22:53;;;;;;;18.00;7.60;;;;;;;;;;6229508;28;20033;-73
2021/12/24 18:25:53;;;;;;;16.93;7.37;;;;;;;;;;6242273;28;20389;-73
2021/12/24 18:28:58;;;;;;;24.63;10.00;;;;;;;;;;6224479;28;20045;-74
2021/12/24 18:31:58;;;;;;;18.20;8.02;;;;;;;;;;6217209;28;20021;-74
2021/12/24 18:35:03;;;;;;;18.48;9.10;;;;;;;;;;6231802;28;20026;-73
2021/12/24 18:38:10;;;;;;;16.63;8.20;;;;;;;;;;6238251;28;20131;-73
2021/12/24 18:41:11;;;;;;;21.88;8.48;;;;;;;;;;6244119;28;20017;-74
2021/12/24 18:44:11;;;;;;;25.08;10.48;;;;;;;;;;6266524;28;20025;-73
2021/12/24 18:47:12;;;;;;;20.92;11.88;;;;;;;;;;6265493;28;20143;-73
2021/12/24 18:50:13;;;;;;;22.02;9.48;;;;;;;;;;6241595;28;20349;-73
2021/12/24 18:53:13;;;;;;;16.52;9.00;;;;;;;;;;6241813;28;20026;-73
2021/12/24 18:56:13;;;;;;;24.33;12.15;;;;;;;;;;6241775;28;20017;-74
2021/12/24 18:59:14;;;;;;;16.08;8.00;;;;;;;;;;6242065;28;20030;-74
2021/12/24 19:02:14;;;;;;;25.63;11.20;;;;;;;;;;6240449;28;20440;-74
2021/12/24 19:05:15;;;;;;;18.92;7.38;;;;;;;;;;6236720;28;20010;-74
2021/12/24 19:08:16;;;;;;;19.75;6.82;;;;;;;;;;6237542;28;20020;-74
2021/12/24 19:11:16;;;;;;;12.93;6.70;;;;;;;;;;6231330;28;20045;-74
2021/12/24 19:14:16;;;;;;;11.07;6.10;;;;;;;;;;6231016;28;20131;-74
2021/12/24 19:17:17;;;;;;;14.00;6.18;;;;;;;;;;6240768;28;20538;-74
2021/12/24 19:20:19;;;;;;;14.32;7.30;;;;;;;;;;6252304;28;20116;-74
2021/12/24 19:23:19;;;;;;;21.05;8.48;;;;;;;;;;6241891;28;20017;-74
2021/12/24 19:26:20;;;;;;;16.05;7.85;;;;;;;;;;6243216;28;20025;-74
2021/12/24 19:29:25;;;;;;;10.00;5.93;;;;;;;;;;6239891;28;20370;-74